Aviation Digital Data Service (ADDS)

Output produced by METARs form (0304 UTC 20 March 2019)
found at http://www.aviationweather.gov/metar/data/
 
KSAV 200253Z 03006KT 10SM BKN220 11/M01 A3028 RMK AO2 SLP253 T01061006 50007
KSAV 192320Z 2000/2024 03007KT P6SM BKN250 
     FM200400 01006KT P6SM FEW250 
     FM201400 01008KT P6SM FEW040
       
KSVN 200156Z AUTO 04005KT 10SM CLR 12/M02 A3025 RMK AO2 SLP247 T01201019 $
TAF KSVN 192000Z 1920/2102 04012G18KT 9999 FEW050 BKN250 QNH3020INS 
     BECMG 1922/1923 02012KT 9999 SCT050 BKN200 QNH3018INS 
     BECMG 2011/2012 02009KT 9999 SKC QNH3008INS TX18/1920Z TN08/2013Z
       
KLHW 200256Z AUTO 04004KT 10SM BKN190 OVC220 10/01 A3026 RMK AO2 SLP250 T01020008 51012 $
KTBR 200255Z AUTO 00000KT 10SM CLR 06/01 A3029 RMK AO2 T00550010
KVDI 200255Z AUTO 06003KT 10SM CLR 10/00 A3028 RMK AO2
KJYL 200255Z AUTO 08003KT 10SM CLR 08/01 A3030 RMK AO2 T00810005
KDBN 200250Z AUTO 04003KT 10SM CLR 07/00 A3031 RMK AO2
KJES 200300Z AUTO 05003KT 10SM CLR 11/04 A3027 RMK AO2
KSSI 200253Z AUTO 03012G20KT 10SM OVC060 14/04 A3024 RMK AO2 SLP242 T01390044 51007
KSSI 192338Z 2000/2024 04014G23KT P6SM FEW030 OVC060 
     FM200100 03012KT P6SM OVC050 
     FM201400 03013G20KT P6SM FEW030 BKN050 
     FM202000 02008KT P6SM SCT050
       
KBQK 200255Z AUTO 04012KT 10SM SCT055 BKN065 13/02 A3026 RMK AO2
KAYS 200255Z AUTO 07003KT 10SM CLR 11/04 A3026 RMK AO2 T01100035
KNBC 200256Z 04007KT 10SM SCT250 11/M01 A3028 RMK AO2 SLP255 LAST T01061006 51003
TAF KNBC 2003/2103 03010KT 9999 SCT250 522009 522909 523802 620703 QNH3024INS 
     BECMG 2008/2010 04012KT 9999 SCT080 BKN200 500000 600000 QNH3026INS
T06/2012Z T16/2020Z
       
KHXD 200255Z AUTO 03011KT 10SM CLR 12/M01 A3028 RMK AO2